CEB463 RPLL-RPVI
Flight info
| Callsign | CEB463 |
|---|---|
| Flight time | 0h 47m |
| Altitude | 29000 |
| Route | VERDE2V VERDE A461 SAJ W3 BEDER BEDER1N |
| Aircraft | A321/M-SDE3FGHIRWY/LB1 |
Departure
| Time | 2026-04-25 14:30 |
|---|---|
| Airport | Ninoy Aquino International Airport (RPLL) |
Arrival
| Time | 2026-04-25 15:17 |
|---|---|
| Airport | Iloilo International Airport (RPVI) |
| Time | Latitude | Longitude | Altitude | Speed | Heading |
|---|---|---|---|---|---|
| 2026-04-25 14:04 | 14.52189 | 121.00996 | 82 ft | 0 kts | 46° |
| 2026-04-25 14:11 | 14.52180 | 121.00987 | 82 ft | 2 kts | 46° |
| 2026-04-25 14:12 | 14.52169 | 121.00975 | 82 ft | 2 kts | 46° |
| 2026-04-25 14:12 | 14.52159 | 121.00964 | 82 ft | 2 kts | 46° |
| 2026-04-25 14:12 | 14.52149 | 121.00953 | 82 ft | 2 kts | 46° |
| 2026-04-25 14:12 | 14.52142 | 121.00946 | 82 ft | 2 kts | 46° |
| 2026-04-25 14:13 | 14.52130 | 121.00937 | 82 ft | 2 kts | 22° |
| 2026-04-25 14:13 | 14.52115 | 121.00932 | 82 ft | 2 kts | 5° |
| 2026-04-25 14:13 | 14.52100 | 121.00933 | 82 ft | 2 kts | 346° |
| 2026-04-25 14:13 | 14.52086 | 121.00939 | 82 ft | 2 kts | 327° |
| 2026-04-25 14:14 | 14.52079 | 121.00944 | 82 ft | 1 kts | 316° |
| 2026-04-25 14:14 | 14.52075 | 121.00949 | 82 ft | 0 kts | 314° |
| 2026-04-25 14:16 | 14.52080 | 121.00944 | 82 ft | 1 kts | 314° |
| 2026-04-25 14:17 | 14.52092 | 121.00932 | 82 ft | 3 kts | 316° |
| 2026-04-25 14:17 | 14.52111 | 121.00912 | 82 ft | 4 kts | 316° |
| 2026-04-25 14:17 | 14.52137 | 121.00887 | 82 ft | 5 kts | 315° |
| 2026-04-25 14:17 | 14.52168 | 121.00854 | 82 ft | 6 kts | 315° |
| 2026-04-25 14:18 | 14.52205 | 121.00816 | 82 ft | 8 kts | 314° |
| 2026-04-25 14:18 | 14.52247 | 121.00772 | 82 ft | 9 kts | 314° |
| 2026-04-25 14:18 | 14.52294 | 121.00723 | 82 ft | 10 kts | 314° |
| 2026-04-25 14:18 | 14.52347 | 121.00668 | 82 ft | 11 kts | 315° |
| 2026-04-25 14:19 | 14.52405 | 121.00609 | 82 ft | 12 kts | 315° |
| 2026-04-25 14:19 | 14.52460 | 121.00552 | 82 ft | 10 kts | 315° |
| 2026-04-25 14:19 | 14.52491 | 121.00513 | 82 ft | 5 kts | 287° |
| 2026-04-25 14:19 | 14.52475 | 121.00473 | 82 ft | 5 kts | 225° |
| 2026-04-25 14:20 | 14.52461 | 121.00459 | 82 ft | 1 kts | 224° |
| 2026-04-25 14:20 | 14.52458 | 121.00456 | 82 ft | 2 kts | 225° |
| 2026-04-25 14:20 | 14.52422 | 121.00419 | 82 ft | 6 kts | 225° |
| 2026-04-25 14:20 | 14.52385 | 121.00396 | 82 ft | 6 kts | 178° |
| 2026-04-25 14:21 | 14.52343 | 121.00426 | 82 ft | 8 kts | 135° |
| 2026-04-25 14:21 | 14.52301 | 121.00470 | 82 ft | 9 kts | 135° |
| 2026-04-25 14:21 | 14.52283 | 121.00488 | 82 ft | 1 kts | 135° |
| 2026-04-25 14:21 | 14.52282 | 121.00489 | 82 ft | 0 kts | 135° |
| 2026-04-25 14:29 | 14.52276 | 121.00495 | 82 ft | 6 kts | 135° |
| 2026-04-25 14:29 | 14.52080 | 121.00699 | 82 ft | 78 kts | 135° |
| 2026-04-25 14:29 | 14.51522 | 121.01271 | 82 ft | 144 kts | 134° |
| 2026-04-25 14:29 | 14.50740 | 121.02093 | 458 ft | 164 kts | 133° |
| 2026-04-25 14:30 | 14.49941 | 121.02927 | 1092 ft | 167 kts | 131° |
| 2026-04-25 14:30 | 14.48322 | 121.04651 | 2176 ft | 174 kts | 131° |
| 2026-04-25 14:30 | 14.47443 | 121.05595 | 2453 ft | 187 kts | 128° |
| 2026-04-25 14:31 | 14.46861 | 121.06785 | 2718 ft | 195 kts | 98° |
| 2026-04-25 14:31 | 14.46777 | 121.08231 | 3004 ft | 209 kts | 89° |
| 2026-04-25 14:31 | 14.46787 | 121.09266 | 3178 ft | 221 kts | 87° |
| 2026-04-25 14:31 | 14.46838 | 121.11507 | 3541 ft | 246 kts | 87° |
| 2026-04-25 14:32 | 14.46884 | 121.13309 | 3929 ft | 262 kts | 90° |
| 2026-04-25 14:32 | 14.46491 | 121.15156 | 4537 ft | 270 kts | 115° |
| 2026-04-25 14:32 | 14.45277 | 121.16641 | 5250 ft | 275 kts | 140° |
| 2026-04-25 14:32 | 14.43701 | 121.17757 | 6003 ft | 278 kts | 146° |
| 2026-04-25 14:33 | 14.41999 | 121.18742 | 6683 ft | 283 kts | 158° |
| 2026-04-25 14:33 | 14.40062 | 121.19029 | 7355 ft | 289 kts | 183° |
| 2026-04-25 14:33 | 14.38051 | 121.18744 | 8120 ft | 292 kts | 188° |
| 2026-04-25 14:33 | 14.36047 | 121.18385 | 8804 ft | 296 kts | 189° |
| 2026-04-25 14:34 | 14.34003 | 121.18009 | 9503 ft | 299 kts | 189° |
| 2026-04-25 14:34 | 14.31961 | 121.17638 | 10187 ft | 302 kts | 189° |
| 2026-04-25 14:34 | 14.29870 | 121.17262 | 10867 ft | 303 kts | 189° |
| 2026-04-25 14:34 | 14.27780 | 121.16889 | 11406 ft | 311 kts | 190° |
| 2026-04-25 14:35 | 14.25586 | 121.16497 | 11704 ft | 327 kts | 190° |
| 2026-04-25 14:35 | 14.23293 | 121.16088 | 11976 ft | 342 kts | 190° |
| 2026-04-25 14:35 | 14.20872 | 121.15657 | 12229 ft | 356 kts | 190° |
| 2026-04-25 14:35 | 14.18393 | 121.15218 | 12463 ft | 370 kts | 190° |
| 2026-04-25 14:36 | 14.15794 | 121.14757 | 12682 ft | 383 kts | 190° |
| 2026-04-25 14:36 | 14.13146 | 121.14288 | 12929 ft | 393 kts | 190° |
| 2026-04-25 14:36 | 14.10410 | 121.13805 | 13356 ft | 397 kts | 191° |
| 2026-04-25 14:36 | 14.08572 | 121.13480 | 13674 ft | 399 kts | 191° |
| 2026-04-25 14:37 | 14.05841 | 121.12997 | 14128 ft | 402 kts | 191° |
| 2026-04-25 14:37 | 14.03045 | 121.12502 | 14574 ft | 405 kts | 191° |
| 2026-04-25 14:37 | 13.99348 | 121.11848 | 15144 ft | 408 kts | 191° |
| 2026-04-25 14:37 | 13.96512 | 121.11347 | 15569 ft | 411 kts | 191° |
| 2026-04-25 14:38 | 13.93671 | 121.10846 | 15983 ft | 413 kts | 191° |
| 2026-04-25 14:38 | 13.90835 | 121.10343 | 16384 ft | 415 kts | 191° |
| 2026-04-25 14:38 | 13.87989 | 121.09840 | 16772 ft | 417 kts | 191° |
| 2026-04-25 14:38 | 13.85103 | 121.09332 | 17148 ft | 420 kts | 191° |
| 2026-04-25 14:39 | 13.82212 | 121.08821 | 17504 ft | 422 kts | 191° |
| 2026-04-25 14:39 | 13.79306 | 121.08308 | 17850 ft | 424 kts | 191° |
| 2026-04-25 14:39 | 13.76367 | 121.07789 | 18204 ft | 426 kts | 191° |
| 2026-04-25 14:39 | 13.73431 | 121.07271 | 18559 ft | 428 kts | 191° |
| 2026-04-25 14:40 | 13.70515 | 121.06757 | 18890 ft | 430 kts | 191° |
| 2026-04-25 14:40 | 13.67535 | 121.06231 | 19223 ft | 432 kts | 191° |
| 2026-04-25 14:40 | 13.64548 | 121.05704 | 19555 ft | 433 kts | 191° |
| 2026-04-25 14:40 | 13.61590 | 121.05182 | 19880 ft | 435 kts | 191° |
| 2026-04-25 14:41 | 13.58576 | 121.04650 | 20199 ft | 436 kts | 191° |
| 2026-04-25 14:41 | 13.55584 | 121.04123 | 20512 ft | 438 kts | 191° |
| 2026-04-25 14:41 | 13.52571 | 121.03659 | 20820 ft | 439 kts | 188° |
| 2026-04-25 14:41 | 13.49517 | 121.03359 | 21135 ft | 441 kts | 185° |
| 2026-04-25 14:42 | 13.46426 | 121.03238 | 21443 ft | 443 kts | 182° |
| 2026-04-25 14:42 | 13.45411 | 121.03237 | 21543 ft | 443 kts | 181° |
| 2026-04-25 14:42 | 13.40222 | 121.03279 | 22027 ft | 445 kts | 180° |
| 2026-04-25 14:42 | 13.37143 | 121.03311 | 22311 ft | 447 kts | 180° |
| 2026-04-25 14:43 | 13.34001 | 121.03345 | 22591 ft | 448 kts | 180° |
| 2026-04-25 14:43 | 13.30866 | 121.03378 | 22867 ft | 450 kts | 180° |
| 2026-04-25 14:43 | 13.27711 | 121.03408 | 23123 ft | 452 kts | 181° |
| 2026-04-25 14:43 | 13.24574 | 121.03439 | 23381 ft | 454 kts | 180° |
| 2026-04-25 14:44 | 13.21391 | 121.03471 | 23638 ft | 455 kts | 181° |
| 2026-04-25 14:44 | 13.18202 | 121.03505 | 23906 ft | 457 kts | 180° |
| 2026-04-25 14:44 | 13.15016 | 121.03538 | 24166 ft | 458 kts | 181° |
| 2026-04-25 14:44 | 13.11824 | 121.03570 | 24420 ft | 460 kts | 181° |
| 2026-04-25 14:45 | 13.08568 | 121.03603 | 24680 ft | 461 kts | 181° |
| 2026-04-25 14:45 | 13.05368 | 121.03635 | 24916 ft | 463 kts | 181° |
| 2026-04-25 14:45 | 13.02131 | 121.03667 | 25141 ft | 464 kts | 181° |
| 2026-04-25 14:45 | 12.98870 | 121.03699 | 25367 ft | 466 kts | 181° |
| 2026-04-25 14:46 | 12.95625 | 121.03731 | 25573 ft | 468 kts | 181° |
| 2026-04-25 14:46 | 12.92364 | 121.03763 | 25787 ft | 470 kts | 181° |
| 2026-04-25 14:46 | 12.89083 | 121.03795 | 26057 ft | 470 kts | 181° |
| 2026-04-25 14:46 | 12.85765 | 121.03828 | 26246 ft | 472 kts | 181° |
| 2026-04-25 14:47 | 12.82457 | 121.03861 | 26476 ft | 473 kts | 181° |
| 2026-04-25 14:47 | 12.81386 | 121.03871 | 26569 ft | 473 kts | 181° |
| 2026-04-25 14:47 | 12.75878 | 121.03925 | 27090 ft | 472 kts | 181° |
| 2026-04-25 14:47 | 12.72590 | 121.03957 | 27391 ft | 471 kts | 181° |
| 2026-04-25 14:48 | 12.69295 | 121.03989 | 27642 ft | 472 kts | 181° |
| 2026-04-25 14:48 | 12.66010 | 121.04021 | 27853 ft | 473 kts | 181° |
| 2026-04-25 14:48 | 12.62702 | 121.04054 | 28071 ft | 475 kts | 181° |
| 2026-04-25 14:48 | 12.59368 | 121.04085 | 28308 ft | 475 kts | 181° |
| 2026-04-25 14:49 | 12.56057 | 121.04117 | 28533 ft | 476 kts | 181° |
| 2026-04-25 14:49 | 12.52759 | 121.04148 | 28724 ft | 478 kts | 181° |
| 2026-04-25 14:49 | 12.49397 | 121.04180 | 28918 ft | 479 kts | 181° |
| 2026-04-25 14:49 | 12.46039 | 121.04211 | 28933 ft | 484 kts | 181° |
| 2026-04-25 14:50 | 12.39293 | 121.04579 | 28936 ft | 488 kts | 170° |
| 2026-04-25 14:50 | 12.36023 | 121.05625 | 28939 ft | 491 kts | 158° |
| 2026-04-25 14:50 | 12.33037 | 121.07324 | 28939 ft | 494 kts | 147° |
| 2026-04-25 14:51 | 12.27893 | 121.11966 | 28943 ft | 496 kts | 138° |
| 2026-04-25 14:51 | 12.22874 | 121.16829 | 28941 ft | 496 kts | 138° |
| 2026-04-25 14:52 | 12.17835 | 121.21680 | 28938 ft | 496 kts | 138° |
| 2026-04-25 14:52 | 12.14494 | 121.24882 | 28932 ft | 496 kts | 138° |
| 2026-04-25 14:53 | 12.07772 | 121.31310 | 28923 ft | 496 kts | 138° |
| 2026-04-25 14:53 | 12.02703 | 121.36150 | 28914 ft | 496 kts | 138° |
| 2026-04-25 14:54 | 11.97665 | 121.40958 | 28907 ft | 496 kts | 138° |
| 2026-04-25 14:54 | 11.92611 | 121.45779 | 28901 ft | 495 kts | 138° |
| 2026-04-25 14:55 | 11.87581 | 121.50573 | 28902 ft | 496 kts | 138° |
| 2026-04-25 14:55 | 11.82522 | 121.55395 | 28904 ft | 496 kts | 138° |
| 2026-04-25 14:56 | 11.77464 | 121.60210 | 28903 ft | 495 kts | 137° |
| 2026-04-25 14:56 | 11.72450 | 121.64984 | 28861 ft | 492 kts | 137° |
| 2026-04-25 14:57 | 11.69952 | 121.67361 | 28388 ft | 490 kts | 137° |
| 2026-04-25 14:57 | 11.67485 | 121.69709 | 27620 ft | 486 kts | 137° |
| 2026-04-25 14:57 | 11.65003 | 121.72070 | 26738 ft | 485 kts | 137° |
| 2026-04-25 14:57 | 11.62538 | 121.74410 | 25812 ft | 484 kts | 137° |
| 2026-04-25 14:58 | 11.60109 | 121.76717 | 25125 ft | 477 kts | 137° |
| 2026-04-25 14:58 | 11.57680 | 121.79024 | 24547 ft | 469 kts | 137° |
| 2026-04-25 14:58 | 11.55313 | 121.81274 | 23966 ft | 461 kts | 137° |
| 2026-04-25 14:58 | 11.53000 | 121.83472 | 23392 ft | 454 kts | 137° |
| 2026-04-25 14:59 | 11.50701 | 121.85654 | 22808 ft | 448 kts | 137° |
| 2026-04-25 14:59 | 11.48437 | 121.87801 | 22223 ft | 443 kts | 137° |
| 2026-04-25 14:59 | 11.46208 | 121.89913 | 21659 ft | 437 kts | 137° |
| 2026-04-25 14:59 | 11.43967 | 121.92036 | 21054 ft | 433 kts | 137° |
| 2026-04-25 15:00 | 11.41767 | 121.94122 | 20447 ft | 430 kts | 137° |
| 2026-04-25 15:00 | 11.39604 | 121.96173 | 19849 ft | 426 kts | 136° |
| 2026-04-25 15:00 | 11.37427 | 121.98238 | 19227 ft | 424 kts | 136° |
| 2026-04-25 15:00 | 11.35294 | 122.00260 | 18620 ft | 421 kts | 136° |
| 2026-04-25 15:01 | 11.33139 | 122.02303 | 18012 ft | 418 kts | 136° |
| 2026-04-25 15:01 | 11.31023 | 122.04308 | 17417 ft | 415 kts | 136° |
| 2026-04-25 15:01 | 11.28935 | 122.06287 | 16830 ft | 412 kts | 136° |
| 2026-04-25 15:01 | 11.26844 | 122.08271 | 16236 ft | 409 kts | 136° |
| 2026-04-25 15:02 | 11.24777 | 122.10231 | 15642 ft | 407 kts | 136° |
| 2026-04-25 15:02 | 11.22707 | 122.12193 | 15043 ft | 404 kts | 136° |
| 2026-04-25 15:02 | 11.20645 | 122.14146 | 14470 ft | 401 kts | 136° |
| 2026-04-25 15:02 | 11.18636 | 122.16048 | 14095 ft | 391 kts | 136° |
| 2026-04-25 15:03 | 11.16664 | 122.17915 | 13761 ft | 381 kts | 136° |
| 2026-04-25 15:03 | 11.14750 | 122.19727 | 13533 ft | 369 kts | 136° |
| 2026-04-25 15:03 | 11.12901 | 122.21479 | 13346 ft | 356 kts | 136° |
| 2026-04-25 15:03 | 11.11120 | 122.23164 | 13109 ft | 346 kts | 136° |
| 2026-04-25 15:04 | 11.09371 | 122.24817 | 12916 ft | 334 kts | 136° |
| 2026-04-25 15:04 | 11.07714 | 122.26383 | 12783 ft | 321 kts | 136° |
| 2026-04-25 15:04 | 11.06091 | 122.27917 | 12641 ft | 309 kts | 136° |
| 2026-04-25 15:04 | 11.04520 | 122.29394 | 12282 ft | 307 kts | 136° |
| 2026-04-25 15:05 | 11.02947 | 122.30868 | 11879 ft | 305 kts | 136° |
| 2026-04-25 15:05 | 11.01401 | 122.32319 | 11481 ft | 304 kts | 136° |
| 2026-04-25 15:05 | 10.99854 | 122.33770 | 11083 ft | 302 kts | 136° |
| 2026-04-25 15:06 | 10.96784 | 122.36649 | 10291 ft | 298 kts | 135° |
| 2026-04-25 15:06 | 10.95254 | 122.38080 | 9914 ft | 296 kts | 137° |
| 2026-04-25 15:06 | 10.93496 | 122.39143 | 9487 ft | 298 kts | 163° |
| 2026-04-25 15:06 | 10.91447 | 122.39174 | 9112 ft | 299 kts | 191° |
| 2026-04-25 15:07 | 10.89454 | 122.38593 | 8752 ft | 298 kts | 194° |
| 2026-04-25 15:07 | 10.87450 | 122.38011 | 8379 ft | 296 kts | 193° |
| 2026-04-25 15:07 | 10.85473 | 122.37456 | 8017 ft | 293 kts | 193° |
| 2026-04-25 15:07 | 10.83480 | 122.36906 | 7652 ft | 291 kts | 192° |
| 2026-04-25 15:08 | 10.81547 | 122.36378 | 7299 ft | 289 kts | 192° |
| 2026-04-25 15:08 | 10.79588 | 122.35847 | 6936 ft | 288 kts | 192° |
| 2026-04-25 15:08 | 10.78294 | 122.35497 | 6697 ft | 287 kts | 192° |
| 2026-04-25 15:08 | 10.76376 | 122.34978 | 6345 ft | 285 kts | 192° |
| 2026-04-25 15:09 | 10.73818 | 122.34285 | 5876 ft | 283 kts | 192° |
| 2026-04-25 15:09 | 10.71932 | 122.33775 | 5533 ft | 281 kts | 192° |
| 2026-04-25 15:09 | 10.68246 | 122.32847 | 5038 ft | 251 kts | 179° |
| 2026-04-25 15:10 | 10.66667 | 122.33207 | 4894 ft | 219 kts | 143° |
| 2026-04-25 15:10 | 10.65645 | 122.34213 | 4744 ft | 195 kts | 119° |
| 2026-04-25 15:10 | 10.64707 | 122.36662 | 4209 ft | 179 kts | 105° |
| 2026-04-25 15:11 | 10.64441 | 122.37451 | 4046 ft | 178 kts | 105° |
| 2026-04-25 15:11 | 10.63898 | 122.39034 | 3780 ft | 178 kts | 105° |
| 2026-04-25 15:11 | 10.63622 | 122.40242 | 3575 ft | 174 kts | 88° |
| 2026-04-25 15:12 | 10.64718 | 122.42336 | 3207 ft | 175 kts | 39° |
| 2026-04-25 15:12 | 10.65823 | 122.42865 | 3063 ft | 178 kts | 25° |
| 2026-04-25 15:12 | 10.66990 | 122.43304 | 2920 ft | 178 kts | 24° |
| 2026-04-25 15:12 | 10.67378 | 122.43447 | 2873 ft | 178 kts | 24° |
| 2026-04-25 15:13 | 10.69323 | 122.44160 | 2635 ft | 177 kts | 24° |
| 2026-04-25 15:13 | 10.71633 | 122.45010 | 2293 ft | 168 kts | 24° |
| 2026-04-25 15:13 | 10.72690 | 122.45397 | 2089 ft | 154 kts | 24° |
| 2026-04-25 15:14 | 10.73657 | 122.45753 | 1914 ft | 140 kts | 25° |
| 2026-04-25 15:14 | 10.74562 | 122.46087 | 1744 ft | 136 kts | 25° |
| 2026-04-25 15:14 | 10.75444 | 122.46417 | 1569 ft | 135 kts | 25° |
| 2026-04-25 15:14 | 10.76329 | 122.46747 | 1394 ft | 134 kts | 24° |
| 2026-04-25 15:15 | 10.77199 | 122.47070 | 1220 ft | 134 kts | 24° |
| 2026-04-25 15:15 | 10.78080 | 122.47397 | 1042 ft | 133 kts | 24° |
| 2026-04-25 15:15 | 10.78954 | 122.47720 | 851 ft | 133 kts | 24° |
| 2026-04-25 15:15 | 10.79824 | 122.48039 | 709 ft | 133 kts | 24° |
| 2026-04-25 15:16 | 10.80705 | 122.48371 | 536 ft | 133 kts | 24° |
| 2026-04-25 15:16 | 10.81578 | 122.48697 | 353 ft | 133 kts | 24° |
| 2026-04-25 15:16 | 10.83186 | 122.49294 | 176 ft | 75 kts | 20° |
| 2026-04-25 15:17 | 10.83525 | 122.49419 | 176 ft | 9 kts | 20° |
| 2026-04-25 15:17 | 10.83560 | 122.49445 | 176 ft | 5 kts | 71° |
| 2026-04-25 15:17 | 10.83555 | 122.49489 | 176 ft | 6 kts | 108° |
| 2026-04-25 15:18 | 10.83537 | 122.49538 | 175 ft | 8 kts | 110° |
| 2026-04-25 15:18 | 10.83496 | 122.49647 | 175 ft | 8 kts | 117° |
| 2026-04-25 15:18 | 10.83448 | 122.49676 | 175 ft | 9 kts | 181° |
| 2026-04-25 15:19 | 10.83383 | 122.49657 | 175 ft | 10 kts | 199° |
| 2026-04-25 15:19 | 10.83360 | 122.49649 | 175 ft | 10 kts | 199° |
| 2026-04-25 15:19 | 10.83249 | 122.49608 | 175 ft | 8 kts | 200° |
| 2026-04-25 15:19 | 10.83189 | 122.49586 | 175 ft | 7 kts | 200° |
| 2026-04-25 15:20 | 10.83157 | 122.49575 | 175 ft | 3 kts | 185° |
| 2026-04-25 15:20 | 10.83135 | 122.49591 | 175 ft | 4 kts | 118° |
| 2026-04-25 15:20 | 10.83123 | 122.49623 | 175 ft | 4 kts | 110° |
| 2026-04-25 15:20 | 10.83116 | 122.49642 | 175 ft | 1 kts | 110° |
| 2026-04-25 15:21 | 10.83114 | 122.49647 | 175 ft | 0 kts | 110° |
| 2026-04-25 15:27 | 10.83165 | 122.49659 | 175 ft | 0 kts | 110° |